Time;durP1;ratioP1;P1;durP2;ratioP2;P2;SDS_P1;SDS_P2;PMS_P1;PMS_P2;Temp;Humidity;BMP_temperature;BMP_pressure;BME280_temperature;BME280_humidity;BME280_pressure;Samples;Min_cycle;Max_cycle;Signal;HPM_P1;HPM_P2
2022/12/24 00:01:27;;;;;;;1999.90;999.90;;;13.60;99.90;;;;;;5005000;28;20041;-85
2022/12/24 00:03:53;;;;;;;1999.90;999.90;;;13.40;99.90;;;;;;5004435;28;20112;-87
2022/12/24 00:06:22;;;;;;;1999.90;999.90;;;13.60;99.90;;;;;;5020973;28;20092;-85
2022/12/24 00:08:47;;;;;;;1999.90;999.90;;;13.80;99.90;;;;;;5002266;28;20046;-86
2022/12/24 00:11:14;;;;;;;1999.90;999.90;;;13.70;99.90;;;;;;5005832;28;20037;-85
2022/12/24 00:13:39;;;;;;;1999.90;999.90;;;13.50;99.90;;;;;;4986382;28;20062;-86
2022/12/24 00:16:06;;;;;;;1999.90;999.90;;;;;;;;;;4987460;28;20101;-86
2022/12/24 00:18:32;;;;;;;1999.90;999.90;;;;;;;;;;5002929;28;20048;-86
2022/12/24 00:21:00;;;;;;;1999.90;999.90;;;;;;;;;;5004647;28;20060;-87
2022/12/24 00:23:26;;;;;;;1999.90;999.90;;;12.90;99.90;;;;;;5002748;28;20050;-86
2022/12/24 00:25:52;;;;;;;1999.90;999.90;;;13.40;99.90;;;;;;5001729;28;20045;-86
2022/12/24 00:28:17;;;;;;;1999.90;999.90;;;12.70;99.90;;;;;;5003422;28;20034;-86
2022/12/24 00:30:43;;;;;;;1999.90;999.90;;;12.90;99.90;;;;;;4987366;28;20038;-85
2022/12/24 00:33:09;;;;;;;1999.90;999.90;;;13.90;99.90;;;;;;4986388;28;20054;-86
2022/12/24 00:35:36;;;;;;;1999.90;999.90;;;;;;;;;;5005953;28;20041;-86
2022/12/24 00:38:05;;;;;;;1999.90;999.90;;;13.10;99.90;;;;;;5007765;28;20041;-87
2022/12/24 00:40:31;;;;;;;1999.90;999.90;;;12.60;99.90;;;;;;5001450;28;20042;-86
2022/12/24 00:42:57;;;;;;;1999.90;999.90;;;13.00;99.90;;;;;;5008565;28;20050;-86
2022/12/24 00:45:23;;;;;;;1999.90;999.90;;;13.60;99.90;;;;;;4984385;28;20496;-86
2022/12/24 00:47:49;;;;;;;1999.90;999.90;;;13.40;99.90;;;;;;5001021;28;20042;-87
2022/12/24 00:50:15;;;;;;;1999.90;999.90;;;13.80;99.90;;;;;;5001055;28;20144;-87
2022/12/24 00:52:41;;;;;;;1999.90;999.90;;;13.60;99.90;;;;;;4987972;28;20049;-86
2022/12/24 00:55:07;;;;;;;1999.90;999.90;;;13.20;99.90;;;;;;4985713;28;20065;-86
2022/12/24 00:57:35;;;;;;;1999.90;999.90;;;;;;;;;;4986695;28;20062;-85
2022/12/24 01:00:01;;;;;;;1999.90;999.90;;;13.10;99.90;;;;;;5006570;28;20041;-86
2022/12/24 01:02:27;;;;;;;1999.90;999.90;;;13.60;99.90;;;;;;4973679;28;20044;-86
2022/12/24 01:05:11;;;;;;;1999.90;999.90;;;13.80;99.90;;;;;;4986885;28;20045;-87
2022/12/24 01:07:45;;;;;;;1999.90;999.90;;;12.80;99.90;;;;;;5005411;28;20120;-86
2022/12/24 01:10:13;;;;;;;1999.90;999.90;;;13.30;99.90;;;;;;5002670;28;20057;-85
2022/12/24 01:12:39;;;;;;;;;;;12.70;99.90;;;;;;5009084;28;20466;-86
2022/12/24 01:15:05;;;;;;;1999.90;999.90;;;13.70;99.90;;;;;;5005428;28;19925;-87
2022/12/24 01:17:32;;;;;;;1999.90;999.90;;;13.90;99.90;;;;;;5003927;28;20109;-86
2022/12/24 01:19:58;;;;;;;1999.90;999.90;;;13.50;99.90;;;;;;5003753;28;20050;-86
2022/12/24 01:22:24;;;;;;;1999.90;999.90;;;12.80;99.90;;;;;;5010399;28;20501;-85
2022/12/24 01:24:50;;;;;;;1999.90;999.90;;;12.80;99.90;;;;;;4993200;28;20041;-86
2022/12/24 01:27:15;;;;;;;1999.90;999.90;;;13.60;99.90;;;;;;5007816;28;20382;-85
2022/12/24 01:29:42;;;;;;;1999.90;999.90;;;;;;;;;;5028428;28;20045;-86
2022/12/24 01:32:07;;;;;;;1999.90;999.90;;;13.30;99.90;;;;;;5004577;28;20037;-85
2022/12/24 01:34:33;;;;;;;1999.90;999.90;;;13.70;99.90;;;;;;4990636;28;20477;-87
2022/12/24 01:36:59;;;;;;;1999.90;999.90;;;12.70;99.90;;;;;;5005444;28;20033;-86
2022/12/24 01:39:24;;;;;;;1999.90;999.90;;;13.20;99.90;;;;;;5003516;28;20041;-86
2022/12/24 01:44:40;;;;;;;1999.90;999.90;;;12.80;99.90;;;;;;5006277;28;20061;-86
2022/12/24 01:47:26;;;;;;;1999.90;999.90;;;13.00;99.90;;;;;;5001505;28;20492;-86
2022/12/24 01:50:11;;;;;;;1999.90;999.90;;;13.50;99.90;;;;;;5005189;28;20320;-84
2022/12/24 01:52:37;;;;;;;1999.90;999.90;;;13.50;99.90;;;;;;5005128;28;20163;-85
2022/12/24 01:55:09;;;;;;;1999.90;999.90;;;11.50;99.90;;;;;;5007176;28;20473;-85
2022/12/24 01:57:43;;;;;;;1999.90;999.90;;;12.90;99.90;;;;;;5022433;28;20038;-85
2022/12/24 02:00:13;;;;;;;1999.90;999.90;;;12.80;99.90;;;;;;4992729;28;20053;-84
2022/12/24 02:02:45;;;;;;;1999.90;999.90;;;13.70;99.90;;;;;;5007892;28;20041;-85
2022/12/24 02:05:29;;;;;;;1999.90;999.90;;;13.00;99.90;;;;;;5010869;28;20443;-85
2022/12/24 02:07:56;;;;;;;1999.90;999.90;;;;;;;;;;5009756;28;20053;-86
2022/12/24 02:10:22;;;;;;;1999.90;999.90;;;13.70;99.90;;;;;;5017309;28;20493;-86
2022/12/24 02:12:48;;;;;;;1999.90;999.90;;;13.60;99.90;;;;;;5016123;28;20049;-86
2022/12/24 02:15:17;;;;;;;1999.90;999.90;;;13.60;99.90;;;;;;5001415;28;20087;-86
2022/12/24 02:18:01;;;;;;;1999.90;999.90;;;13.60;99.90;;;;;;4999858;28;20037;-86
2022/12/24 02:20:54;;;;;;;1999.90;999.90;;;12.90;99.90;;;;;;5016565;28;20038;-86
2022/12/24 02:23:47;;;;;;;1999.90;999.90;;;12.80;99.90;;;;;;5015312;28;20053;-85
2022/12/24 02:26:40;;;;;;;1999.90;999.90;;;12.40;99.90;;;;;;5016530;28;20043;-89
2022/12/24 02:29:36;;;;;;;1999.90;999.90;;;13.00;99.90;;;;;;5033721;28;20072;-85
2022/12/24 02:32:09;;;;;;;1999.90;999.90;;;12.80;99.90;;;;;;5015438;28;20045;-83
2022/12/24 02:34:55;;;;;;;1999.90;999.90;;;13.80;99.90;;;;;;5018387;28;20050;-84
2022/12/24 02:37:27;;;;;;;1999.90;999.90;;;13.40;99.90;;;;;;5017775;28;20041;-84
2022/12/24 02:40:15;;;;;;;1999.90;999.90;;;12.90;99.90;;;;;;5015085;28;20434;-84
2022/12/24 02:42:49;;;;;;;1999.90;999.90;;;13.90;99.90;;;;;;5028195;28;20371;-85
2022/12/24 02:45:19;;;;;;;1999.90;999.90;;;13.90;99.90;;;;;;5033967;28;20037;-85
2022/12/24 02:47:47;;;;;;;1999.90;999.90;;;13.50;99.90;;;;;;4998893;28;20056;-87
2022/12/24 02:50:14;;;;;;;;;;;14.00;99.90;;;;;;5014610;28;20029;-86
2022/12/24 02:52:44;;;;;;;1999.90;999.90;;;14.10;99.90;;;;;;5015616;28;20304;-85
2022/12/24 02:55:28;;;;;;;1999.90;999.90;;;13.30;99.90;;;;;;5015665;28;20037;-85
2022/12/24 02:58:14;;;;;;;1999.90;999.90;;;13.70;99.90;;;;;;5010966;28;20070;-84
2022/12/24 03:01:24;;;;;;;1999.90;999.90;;;14.10;99.90;;;;;;5008912;28;20054;-83
2022/12/24 03:04:04;;;;;;;1999.90;999.90;;;14.10;99.90;;;;;;4935786;29;20047;-84
2022/12/24 03:06:55;;;;;;;1999.90;999.90;;;13.90;99.90;;;;;;5002462;28;20048;-85
2022/12/24 03:09:48;;;;;;;1999.90;999.90;;;13.70;99.90;;;;;;5002997;28;20030;-86
2022/12/24 03:12:22;;;;;;;1999.90;999.90;;;14.50;99.90;;;;;;5009364;28;20049;-85
2022/12/24 03:14:49;;;;;;;1999.90;999.90;;;13.60;99.90;;;;;;5010167;28;20512;-87
2022/12/24 03:17:17;;;;;;;1999.90;999.90;;;13.80;99.90;;;;;;5010193;28;20057;-84
2022/12/24 03:19:43;;;;;;;;;;;13.50;99.90;;;;;;4995533;28;20053;-85
2022/12/24 03:22:10;;;;;;;1999.90;999.90;;;14.60;99.90;;;;;;4995217;28;19917;-86
2022/12/24 03:24:37;;;;;;;1999.90;999.90;;;14.60;99.90;;;;;;4995127;28;20045;-84
2022/12/24 03:27:08;;;;;;;1999.90;999.90;;;14.30;99.90;;;;;;5010415;28;20458;-85
2022/12/24 03:29:34;;;;;;;1999.90;999.90;;;14.50;99.90;;;;;;5010524;28;20169;-86
2022/12/24 03:32:02;;;;;;;1999.90;999.90;;;14.70;99.90;;;;;;5009931;28;20065;-84
2022/12/24 03:34:29;;;;;;;1999.90;999.90;;;13.70;99.90;;;;;;5010180;28;20104;-84
2022/12/24 03:36:57;;;;;;;1999.90;999.90;;;14.10;99.90;;;;;;5010030;28;20037;-85
2022/12/24 03:39:23;;;;;;;1999.90;999.90;;;;;;;;;;5009550;28;20114;-84
2022/12/24 03:41:49;;;;;;;1999.90;999.90;;;14.60;99.90;;;;;;4987106;28;20064;-85
2022/12/24 03:44:15;;;;;;;1999.90;999.90;;;14.40;99.90;;;;;;5006139;28;20045;-85
2022/12/24 03:46:40;;;;;;;1999.90;999.90;;;13.70;99.90;;;;;;5003151;28;20164;-83
2022/12/24 03:49:06;;;;;;;1999.90;999.90;;;13.70;99.90;;;;;;4987057;28;20108;-84
2022/12/24 03:51:32;;;;;;;1999.90;999.90;;;14.60;99.90;;;;;;5011201;28;20432;-84
2022/12/24 03:53:58;;;;;;;1999.90;999.90;;;14.60;99.90;;;;;;5008224;28;20084;-84
2022/12/24 03:56:24;;;;;;;1999.90;999.90;;;14.80;99.90;;;;;;5015687;28;20040;-86
2022/12/24 03:58:51;;;;;;;1999.90;999.90;;;13.60;99.90;;;;;;4986233;28;20045;-85
2022/12/24 04:01:17;;;;;;;1999.90;999.90;;;14.60;99.90;;;;;;5003166;28;20522;-85
2022/12/24 04:03:43;;;;;;;1999.90;999.90;;;14.10;99.90;;;;;;5008888;28;20117;-85
2022/12/24 04:06:14;;;;;;;1999.90;999.90;;;13.60;99.90;;;;;;5005221;28;20124;-85
2022/12/24 04:08:40;;;;;;;1999.90;999.90;;;14.50;99.90;;;;;;5002949;28;20054;-87
2022/12/24 04:11:11;;;;;;;1999.90;999.90;;;14.10;99.90;;;;;;5003237;28;20046;-85
2022/12/24 04:13:36;;;;;;;1999.90;999.90;;;14.50;99.90;;;;;;5005289;28;20038;-85
2022/12/24 04:16:10;;;;;;;1999.90;999.90;;;14.00;99.90;;;;;;4986956;28;21443;-86
2022/12/24 04:18:37;;;;;;;1999.90;999.90;;;13.70;99.90;;;;;;5001970;28;20132;-87
2022/12/24 04:21:03;;;;;;;1999.90;999.90;;;13.60;99.90;;;;;;5000240;28;20492;-86
2022/12/24 04:23:30;;;;;;;1999.90;999.90;;;13.80;99.90;;;;;;4971857;28;20042;-87
2022/12/24 04:25:59;;;;;;;1999.90;999.90;;;14.30;99.90;;;;;;4971846;28;20785;-87
2022/12/24 04:28:24;;;;;;;1999.90;999.90;;;14.50;99.90;;;;;;5000721;28;20414;-87
2022/12/24 04:30:50;;;;;;;1999.90;999.90;;;14.40;99.90;;;;;;5006795;28;20042;-85
2022/12/24 04:33:16;;;;;;;1999.90;999.90;;;13.60;99.90;;;;;;5003326;28;21413;-86
2022/12/24 04:35:42;;;;;;;1999.90;999.90;;;14.60;99.90;;;;;;5005269;28;20038;-85
2022/12/24 04:38:08;;;;;;;1999.90;999.90;;;14.60;99.90;;;;;;5011351;28;20268;-85
2022/12/24 04:40:34;;;;;;;1999.90;999.90;;;13.70;99.90;;;;;;5006057;28;20049;-85
2022/12/24 04:43:00;;;;;;;1999.90;999.90;;;14.10;99.90;;;;;;4993289;28;20054;-85
2022/12/24 04:45:26;;;;;;;1999.90;999.90;;;14.10;99.90;;;;;;5005864;28;20060;-85
2022/12/24 04:47:52;;;;;;;1999.90;999.90;;;13.80;99.90;;;;;;5006759;28;20052;-85
2022/12/24 04:50:17;;;;;;;1999.90;999.90;;;13.60;99.90;;;;;;4988411;28;20056;-85
2022/12/24 04:52:43;;;;;;;1999.90;999.90;;;14.40;99.90;;;;;;5004747;28;20042;-83
2022/12/24 04:55:09;;;;;;;1999.90;999.90;;;13.90;99.90;;;;;;4973777;28;20053;-85
2022/12/24 04:57:36;;;;;;;1999.90;999.90;;;13.60;99.90;;;;;;4989706;28;20490;-84
2022/12/24 05:00:04;;;;;;;1999.90;999.90;;;13.80;99.90;;;;;;5010486;28;20045;-85
2022/12/24 05:02:30;;;;;;;1999.90;999.90;;;14.50;99.90;;;;;;5007672;28;20501;-85
2022/12/24 05:04:55;;;;;;;1999.90;999.90;;;14.30;99.90;;;;;;4988686;28;20056;-86
2022/12/24 05:07:21;;;;;;;1999.90;999.90;;;14.60;99.90;;;;;;4988678;28;20103;-88
2022/12/24 05:09:47;;;;;;;1999.90;999.90;;;14.60;99.90;;;;;;5022101;28;20091;-86
2022/12/24 05:12:13;;;;;;;1999.90;999.90;;;;;;;;;;4973908;28;20037;-85
2022/12/24 05:14:39;;;;;;;1999.90;999.90;;;14.40;99.90;;;;;;5021021;28;20099;-86
2022/12/24 05:17:05;;;;;;;1999.90;999.90;;;14.00;99.90;;;;;;5005464;28;20073;-88
2022/12/24 05:19:31;;;;;;;1999.90;999.90;;;13.80;99.90;;;;;;4990240;28;20439;-86
2022/12/24 05:27:25;;;;;;;1999.90;999.90;;;13.60;99.90;;;;;;4978937;28;20042;-86
2022/12/24 05:29:51;;;;;;;1999.90;999.90;;;14.40;99.90;;;;;;4989211;28;20049;-86
2022/12/24 05:32:16;;;;;;;1999.90;999.90;;;13.90;99.90;;;;;;4989011;28;20484;-86
2022/12/24 05:34:44;;;;;;;1999.90;999.90;;;13.60;99.90;;;;;;5009329;28;20050;-88
2022/12/24 05:37:10;;;;;;;1999.90;999.90;;;14.60;99.90;;;;;;5024651;28;20052;-87
2022/12/24 05:39:36;;;;;;;1999.90;999.90;;;14.60;99.90;;;;;;4992278;28;20061;-87
2022/12/24 05:42:02;;;;;;;1999.90;999.90;;;13.60;99.90;;;;;;5009528;28;20037;-86
2022/12/24 05:44:27;;;;;;;1999.90;999.90;;;13.60;99.90;;;;;;5009462;28;20466;-87
2022/12/24 05:46:53;;;;;;;1999.90;999.90;;;13.60;99.90;;;;;;5011954;28;20474;-87
2022/12/24 05:49:19;;;;;;;1999.90;999.90;;;13.60;99.90;;;;;;5011253;28;20041;-86
2022/12/24 05:51:44;;;;;;;1999.90;999.90;;;14.60;99.90;;;;;;5000422;28;20102;-86
2022/12/24 05:54:10;;;;;;;1999.90;999.90;;;14.40;99.90;;;;;;5011650;28;20378;-86
2022/12/24 05:56:36;;;;;;;1999.90;999.90;;;13.70;99.90;;;;;;5010936;28;20045;-87
2022/12/24 05:59:02;;;;;;;1999.90;999.90;;;14.50;99.90;;;;;;4994332;28;20060;-88
2022/12/24 06:01:28;;;;;;;1999.90;999.90;;;14.40;99.90;;;;;;4993103;28;20049;-88
2022/12/24 06:03:58;;;;;;;1999.90;999.90;;;13.60;99.90;;;;;;5009717;28;20037;-87
2022/12/24 06:06:26;;;;;;;1999.90;999.90;;;13.80;99.90;;;;;;4992314;28;20470;-87
2022/12/24 06:08:53;;;;;;;1999.90;999.90;;;13.50;99.90;;;;;;5028420;28;20042;-87
2022/12/24 06:11:22;;;;;;;1999.90;999.90;;;13.50;99.90;;;;;;4994124;28;20138;-87
2022/12/24 06:13:48;;;;;;;1999.90;999.90;;;13.20;99.90;;;;;;5008841;28;20092;-87
2022/12/24 06:16:16;;;;;;;1999.90;999.90;;;13.80;99.90;;;;;;5024310;28;20159;-88
2022/12/24 06:18:42;;;;;;;;;;;14.30;99.90;;;;;;4993544;28;20045;-87
2022/12/24 06:21:08;;;;;;;1999.90;999.90;;;12.50;99.90;;;;;;5006574;28;19927;-85
2022/12/24 06:23:36;;;;;;;1999.90;999.90;;;14.20;99.90;;;;;;5010087;28;20059;-86
2022/12/24 06:26:02;;;;;;;1999.90;999.90;;;14.60;99.90;;;;;;5024660;28;20399;-85
2022/12/24 06:28:29;;;;;;;1999.90;999.90;;;13.60;99.90;;;;;;5008708;28;20064;-86
2022/12/24 06:30:55;;;;;;;1999.90;999.90;;;12.80;99.90;;;;;;5010170;28;20049;-86
2022/12/24 06:33:21;;;;;;;1999.90;999.90;;;13.80;99.90;;;;;;4991089;28;20052;-84
2022/12/24 06:35:47;;;;;;;1999.90;999.90;;;14.50;99.90;;;;;;4997489;28;20045;-87
2022/12/24 06:38:14;;;;;;;1999.90;999.90;;;13.70;99.90;;;;;;5024297;28;20111;-86
2022/12/24 06:40:41;;;;;;;1999.90;999.90;;;13.60;99.90;;;;;;5028228;28;20036;-85
2022/12/24 06:43:07;;;;;;;1999.90;999.90;;;14.50;99.90;;;;;;5031438;28;20124;-85
2022/12/24 06:45:33;;;;;;;1999.90;999.90;;;13.50;99.90;;;;;;5005554;28;20059;-86
2022/12/24 06:47:59;;;;;;;1999.90;999.90;;;13.50;99.90;;;;;;5006686;28;20052;-86
2022/12/24 06:50:25;;;;;;;1999.90;999.90;;;13.90;99.90;;;;;;4999640;28;20055;-87
2022/12/24 06:52:52;;;;;;;1999.90;999.90;;;13.50;99.90;;;;;;5023967;28;20045;-86
2022/12/24 06:55:17;;;;;;;1999.90;999.90;;;13.40;99.90;;;;;;5007901;28;20049;-87
2022/12/24 06:57:43;;;;;;;1999.90;999.90;;;13.50;99.90;;;;;;5024087;28;20037;-86
2022/12/24 07:00:11;;;;;;;1999.90;999.90;;;13.70;99.90;;;;;;4971195;28;20080;-86
2022/12/24 07:02:41;;;;;;;1999.90;999.90;;;13.90;99.90;;;;;;5001883;28;20089;-87
2022/12/24 07:05:09;;;;;;;1999.90;999.90;;;14.40;99.90;;;;;;5005546;28;20041;-86
2022/12/24 07:07:39;;;;;;;1999.90;999.90;;;14.60;99.90;;;;;;5003975;28;20041;-86
2022/12/24 07:10:06;;;;;;;1999.90;999.90;;;14.70;99.90;;;;;;5004639;28;20041;-86
2022/12/24 07:12:33;;;;;;;1999.90;999.90;;;13.70;99.90;;;;;;5006344;28;20042;-86
2022/12/24 07:14:58;;;;;;;1999.90;999.90;;;13.70;99.90;;;;;;5003980;28;20505;-86
2022/12/24 07:17:24;;;;;;;1999.90;999.90;;;14.40;99.90;;;;;;5002743;28;20056;-87
2022/12/24 07:19:50;;;;;;;1999.90;999.90;;;14.00;99.90;;;;;;5016252;28;20497;-86
2022/12/24 07:22:15;;;;;;;1999.90;999.90;;;14.20;99.90;;;;;;5003187;28;20041;-86
2022/12/24 07:24:41;;;;;;;1999.90;999.90;;;14.80;99.90;;;;;;5005350;28;20319;-86
2022/12/24 07:27:07;;;;;;;1999.90;999.90;;;13.80;99.90;;;;;;5007722;28;20065;-87
2022/12/24 07:29:33;;;;;;;1999.90;999.90;;;13.90;99.90;;;;;;5008296;28;20135;-86
2022/12/24 07:31:59;;;;;;;1999.90;999.90;;;13.80;99.90;;;;;;5009265;28;20049;-85
2022/12/24 07:34:25;;;;;;;1999.90;999.90;;;14.60;99.90;;;;;;5010794;28;20042;-85
2022/12/24 07:36:51;;;;;;;1999.90;999.90;;;14.80;99.90;;;;;;5011014;28;20066;-85
2022/12/24 07:39:16;;;;;;;1999.90;999.90;;;14.80;99.90;;;;;;5010753;28;20386;-86
2022/12/24 07:41:42;;;;;;;1999.90;999.90;;;14.60;99.90;;;;;;4989193;28;20040;-85
2022/12/24 07:44:14;;;;;;;1999.90;999.90;;;14.70;99.90;;;;;;4991888;28;20052;-86
2022/12/24 07:46:40;;;;;;;1999.90;999.90;;;12.20;99.90;;;;;;5009555;28;20073;-85
2022/12/24 07:49:06;;;;;;;1999.90;999.90;;;14.60;99.90;;;;;;5011935;28;20049;-85
2022/12/24 07:51:31;;;;;;;1999.90;999.90;;;14.30;99.90;;;;;;4994282;28;20153;-85
2022/12/24 07:53:57;;;;;;;1999.90;999.90;;;13.90;99.90;;;;;;5010998;28;20147;-85
2022/12/24 07:56:23;;;;;;;1999.90;999.90;;;14.60;99.90;;;;;;5010023;28;20042;-86
2022/12/24 07:58:51;;;;;;;1999.90;999.90;;;13.90;99.90;;;;;;5016944;28;20485;-85
2022/12/24 08:01:17;;;;;;;;;;;14.50;99.90;;;;;;5014297;28;20496;-84
2022/12/24 08:03:43;;;;;;;1999.90;999.90;;;14.00;99.90;;;;;;5030225;28;19916;-86
2022/12/24 08:06:09;;;;;;;1999.90;999.90;;;14.40;99.90;;;;;;4998542;28;20838;-85
2022/12/24 08:08:36;;;;;;;1999.90;999.90;;;14.70;99.90;;;;;;4994959;28;20073;-85
2022/12/24 08:11:04;;;;;;;1999.90;999.90;;;14.90;99.90;;;;;;4998640;28;20132;-85
2022/12/24 08:13:30;;;;;;;1999.90;999.90;;;14.30;99.90;;;;;;5028902;28;20041;-85
2022/12/24 08:15:56;;;;;;;1999.90;999.90;;;14.60;99.90;;;;;;5011887;28;20038;-86
2022/12/24 08:18:22;;;;;;;1999.90;999.90;;;12.00;99.90;;;;;;5013453;28;20053;-86
2022/12/24 08:20:48;;;;;;;1999.90;999.90;;;14.00;99.90;;;;;;5030363;28;20171;-85
2022/12/24 08:23:14;;;;;;;1999.90;999.90;;;14.00;99.90;;;;;;5028509;28;20124;-87
2022/12/24 08:25:45;;;;;;;1999.90;999.90;;;13.70;99.90;;;;;;5027065;28;20053;-89
2022/12/24 08:28:12;;;;;;;1999.90;999.90;;;14.10;99.90;;;;;;5024205;28;20100;-86
2022/12/24 08:30:38;;;;;;;1999.90;999.90;;;15.10;99.90;;;;;;5010516;28;20544;-86
2022/12/24 08:33:03;;;;;;;1999.90;999.90;;;14.20;99.90;;;;;;5032061;28;20037;-86
2022/12/24 08:35:29;;;;;;;1999.90;999.90;;;14.50;99.90;;;;;;5029916;28;20546;-86
2022/12/24 08:37:55;;;;;;;1999.90;999.90;;;15.20;99.90;;;;;;5029644;28;20042;-86
2022/12/24 08:40:21;;;;;;;1999.90;999.90;;;14.10;99.90;;;;;;5007891;28;20044;-86
2022/12/24 08:42:47;;;;;;;1999.90;999.90;;;15.10;99.90;;;;;;5029397;28;20045;-85
2022/12/24 08:45:13;;;;;;;1999.90;999.90;;;14.50;99.90;;;;;;4996143;28;20143;-86
2022/12/24 08:47:39;;;;;;;1999.90;999.90;;;14.30;99.90;;;;;;5010202;28;20382;-86
2022/12/24 08:50:05;;;;;;;1999.90;999.90;;;15.20;99.90;;;;;;4994886;28;20120;-91
2022/12/24 08:52:31;;;;;;;1999.90;999.90;;;15.00;99.90;;;;;;5010231;28;20037;-85
2022/12/24 08:54:57;;;;;;;1999.90;999.90;;;15.00;99.90;;;;;;5013233;28;20050;-87
2022/12/24 08:57:23;;;;;;;1999.90;999.90;;;14.90;99.90;;;;;;5006367;28;20064;-86
2022/12/24 08:59:49;;;;;;;1999.90;999.90;;;14.30;99.90;;;;;;5029757;28;20106;-87
2022/12/24 09:02:14;;;;;;;1999.90;999.90;;;14.50;99.90;;;;;;5029877;28;20060;-86
2022/12/24 09:04:40;;;;;;;1999.90;999.90;;;14.90;99.90;;;;;;5014162;28;20059;-86
2022/12/24 09:07:07;;;;;;;1999.90;999.90;;;15.00;99.90;;;;;;5012433;28;20152;-86
2022/12/24 09:09:33;;;;;;;1999.90;999.90;;;15.00;99.90;;;;;;5027802;28;20540;-87
2022/12/24 09:11:58;;;;;;;1999.90;999.90;;;14.40;99.90;;;;;;5031579;28;20041;-87
2022/12/24 09:14:24;;;;;;;1999.90;999.90;;;14.60;99.90;;;;;;5014678;28;20504;-86
2022/12/24 09:16:50;;;;;;;1999.90;999.90;;;14.50;99.90;;;;;;5030672;28;20045;-86
2022/12/24 09:19:16;;;;;;;1999.90;999.90;;;14.60;99.90;;;;;;5027570;28;20068;-86
2022/12/24 09:21:41;;;;;;;1999.90;999.90;;;15.00;99.90;;;;;;5029630;28;20480;-87
2022/12/24 09:24:07;;;;;;;1999.90;999.90;;;14.60;99.90;;;;;;5031569;28;20033;-87
2022/12/24 09:26:35;;;;;;;1999.90;999.90;;;15.20;99.90;;;;;;4996389;28;20429;-87
2022/12/24 09:29:00;;;;;;;1999.90;999.90;;;14.70;99.90;;;;;;5030255;28;20053;-87
2022/12/24 09:31:27;;;;;;;1999.90;999.90;;;14.70;99.90;;;;;;5012877;28;20049;-88
2022/12/24 09:33:53;;;;;;;1999.90;999.90;;;14.80;99.90;;;;;;5032471;28;20080;-87
2022/12/24 09:36:19;;;;;;;1999.90;999.90;;;15.40;99.90;;;;;;5031135;28;20052;-88
2022/12/24 09:38:46;;;;;;;1999.90;999.90;;;14.70;99.90;;;;;;5030288;28;20045;-87
2022/12/24 09:41:31;;;;;;;1999.90;999.90;;;15.10;99.90;;;;;;5010658;28;20382;-87
2022/12/24 09:44:13;;;;;;;1999.90;999.90;;;14.70;99.90;;;;;;5029687;28;20033;-89
2022/12/24 09:46:43;;;;;;;1999.90;999.90;;;14.70;99.90;;;;;;5022778;28;20433;-86
2022/12/24 09:49:20;;;;;;;1999.90;999.90;;;14.90;99.90;;;;;;5011167;28;20289;-87
2022/12/24 09:51:59;;;;;;;1999.90;999.90;;;15.40;99.90;;;;;;5025098;28;20045;-87
2022/12/24 09:54:31;;;;;;;1999.90;999.90;;;15.10;99.90;;;;;;5011680;28;20076;-87
2022/12/24 09:57:04;;;;;;;1999.90;999.90;;;15.00;99.90;;;;;;4997372;28;20107;-87
2022/12/24 09:59:42;;;;;;;1999.90;999.90;;;15.20;99.90;;;;;;5011243;28;20115;-88
2022/12/24 10:02:17;;;;;;;1999.90;999.90;;;15.20;99.90;;;;;;5029779;28;20514;-88
2022/12/24 10:04:44;;;;;;;1999.90;999.90;;;14.70;99.90;;;;;;5028152;28;20049;-86
2022/12/24 10:07:28;;;;;;;1999.90;999.90;;;15.00;99.90;;;;;;5028795;28;20045;-87
2022/12/24 10:10:03;;;;;;;1999.90;999.90;;;15.40;99.90;;;;;;5012308;28;20053;-87
2022/12/24 10:12:34;;;;;;;1999.90;999.90;;;15.40;99.90;;;;;;5031267;28;20053;-88
2022/12/24 10:15:23;;;;;;;1999.90;999.90;;;14.70;99.90;;;;;;5012641;28;20052;-88
2022/12/24 10:18:21;;;;;;;1999.90;999.90;;;15.30;99.90;;;;;;4995264;28;20049;-87
2022/12/24 10:21:10;;;;;;;1999.90;999.90;;;15.20;99.90;;;;;;5031761;28;20048;-88
2022/12/24 10:23:54;;;;;;;1999.90;999.90;;;14.60;99.90;;;;;;5034025;28;20110;-88
2022/12/24 10:26:35;;;;;;;1999.90;999.90;;;15.30;99.90;;;;;;5035408;28;20056;-86
2022/12/24 10:29:12;;;;;;;1999.90;999.90;;;15.00;99.90;;;;;;5019310;28;20053;-87
2022/12/24 10:32:05;;;;;;;1999.90;999.90;;;15.00;99.90;;;;;;5032312;28;20041;-87
2022/12/24 10:34:37;;;;;;;1999.90;999.90;;;15.40;99.90;;;;;;5002048;28;20049;-88
2022/12/24 10:37:03;;;;;;;1999.90;999.90;;;14.70;99.90;;;;;;5017635;28;20482;-88
2022/12/24 10:39:29;;;;;;;1999.90;999.90;;;15.50;99.90;;;;;;5035174;28;20304;-87
2022/12/24 10:41:57;;;;;;;1999.90;999.90;;;15.10;99.90;;;;;;5030871;28;20083;-87
2022/12/24 10:44:29;;;;;;;1999.90;999.90;;;15.00;99.90;;;;;;5034169;28;20438;-87
2022/12/24 10:46:55;;;;;;;1999.90;999.90;;;15.00;99.90;;;;;;5033064;28;20049;-87
2022/12/24 10:49:32;;;;;;;1999.90;999.90;;;15.60;99.90;;;;;;5017410;28;20041;-87
2022/12/24 10:52:18;;;;;;;1999.90;999.90;;;15.00;99.90;;;;;;5031954;28;20053;-88
2022/12/24 10:55:17;;;;;;;1999.90;999.90;;;15.60;99.90;;;;;;5034615;28;20045;-87
2022/12/24 10:57:45;;;;;;;1999.90;999.90;;;15.20;99.90;;;;;;5033539;28;20045;-87
2022/12/24 11:00:21;;;;;;;1999.90;999.90;;;15.70;99.90;;;;;;5015892;28;20509;-86
2022/12/24 11:02:49;;;;;;;1999.90;999.90;;;15.00;99.90;;;;;;5014648;28;20375;-87
2022/12/24 11:05:35;;;;;;;1999.90;999.90;;;15.70;99.90;;;;;;5014753;28;20041;-87
2022/12/24 11:08:13;;;;;;;1999.90;999.90;;;15.10;99.90;;;;;;5030393;28;20045;-88
2022/12/24 11:11:00;;;;;;;1999.90;999.90;;;15.50;99.90;;;;;;5027084;28;20093;-88
2022/12/24 11:13:30;;;;;;;1999.90;999.90;;;15.60;99.90;;;;;;5029077;28;20307;-86
2022/12/24 11:16:20;;;;;;;1999.90;999.90;;;15.10;99.90;;;;;;5009426;28;20319;-87
2022/12/24 11:18:57;;;;;;;1999.90;999.90;;;15.60;99.90;;;;;;5029381;28;20046;-87
2022/12/24 11:21:35;;;;;;;1999.90;999.90;;;15.60;99.90;;;;;;5030894;28;20505;-86
2022/12/24 11:24:12;;;;;;;1999.90;999.90;;;15.00;99.90;;;;;;4981467;28;20145;-89
2022/12/24 11:26:41;;;;;;;1999.90;999.90;;;15.50;99.90;;;;;;5027967;28;20088;-88
2022/12/24 11:29:19;;;;;;;1999.90;999.90;;;15.70;99.90;;;;;;5030729;28;20091;-85
2022/12/24 11:31:46;;;;;;;1999.90;999.90;;;14.90;99.90;;;;;;5027545;28;20049;-86
2022/12/24 11:34:34;;;;;;;1999.90;999.90;;;15.50;99.90;;;;;;5015417;28;20046;-86
2022/12/24 11:37:13;;;;;;;1999.90;999.90;;;15.10;99.90;;;;;;5033670;28;20049;-85
2022/12/24 11:39:50;;;;;;;1999.90;999.90;;;15.40;99.90;;;;;;5030475;28;20065;-89
2022/12/24 11:42:33;;;;;;;1999.90;999.90;;;15.50;99.90;;;;;;5031768;28;19921;-87
2022/12/24 11:45:01;;;;;;;1999.90;999.90;;;14.90;99.90;;;;;;5013427;28;20313;-87
2022/12/24 11:47:34;;;;;;;1999.90;999.90;;;15.20;99.90;;;;;;5031281;28;20047;-88
2022/12/24 11:50:31;;;;;;;1999.90;999.90;;;15.40;99.90;;;;;;4997727;28;20045;-87
2022/12/24 11:53:10;;;;;;;1999.90;999.90;;;15.50;99.90;;;;;;4999093;28;20054;-86
2022/12/24 11:55:41;;;;;;;1999.90;999.90;;;14.90;99.90;;;;;;5030361;28;20061;-84
2022/12/24 11:58:28;;;;;;;1999.90;999.90;;;14.90;99.90;;;;;;5025616;28;20049;-84
2022/12/24 12:01:13;;;;;;;1999.90;999.90;;;15.50;99.90;;;;;;5031566;28;20057;-82
2022/12/24 12:03:50;;;;;;;1999.90;999.90;;;14.80;99.90;;;;;;5031538;28;20053;-84
2022/12/24 12:06:24;;;;;;;1999.90;999.90;;;14.90;99.90;;;;;;5015304;28;20045;-83
2022/12/24 12:08:54;;;;;;;1999.90;999.90;;;14.90;99.90;;;;;;5030454;28;20053;-84
2022/12/24 12:11:21;;;;;;;1999.90;999.90;;;14.80;99.90;;;;;;5028976;28;20136;-84
2022/12/24 12:13:47;;;;;;;1999.90;999.90;;;15.30;99.90;;;;;;5014793;28;20045;-83
2022/12/24 12:17:02;;;;;;;1999.90;999.90;;;14.80;99.90;;;;;;5029987;28;20114;-84
2022/12/24 12:20:02;;;;;;;1999.90;999.90;;;14.90;99.90;;;;;;5006662;28;20049;-83
2022/12/24 12:22:47;;;;;;;;;;;14.80;99.90;;;;;;5033705;28;20057;-83
2022/12/24 12:25:25;;;;;;;1999.90;999.90;;;14.90;99.90;;;;;;5028343;28;19921;-81
2022/12/24 12:27:54;;;;;;;1999.90;999.90;;;14.80;99.90;;;;;;5027969;28;20060;-83